createdAt,value
2019-02-20T00:00:50.678Z,77.50
2019-02-20T00:03:21.542Z,77.40
2019-02-20T00:05:52.707Z,77.00
2019-02-20T00:08:25.293Z,77.60
2019-02-20T00:10:57.738Z,77.50
2019-02-20T00:13:29.891Z,77.20
2019-02-20T00:16:00.778Z,77.20
2019-02-20T00:18:31.921Z,76.90
2019-02-20T00:21:02.980Z,77.20
2019-02-20T00:23:33.684Z,77.40
2019-02-20T00:26:04.397Z,77.30
2019-02-20T00:28:35.228Z,77.60
2019-02-20T00:31:06.234Z,77.50
2019-02-20T00:33:36.863Z,77.40
2019-02-20T00:36:08.150Z,77.20
2019-02-20T00:38:38.820Z,77.30
2019-02-20T00:41:09.852Z,77.20
2019-02-20T00:43:42.244Z,77.40
2019-02-20T00:46:22.018Z,77.30
2019-02-20T00:48:59.580Z,77.60
2019-02-20T00:51:55.313Z,77.40
2019-02-20T00:54:29.337Z,77.70
2019-02-20T00:57:00.238Z,77.40
2019-02-20T00:59:31.021Z,77.50
2019-02-20T01:02:01.858Z,77.40
2019-02-20T01:04:32.796Z,77.50
2019-02-20T01:07:04.365Z,77.60
2019-02-20T01:09:35.482Z,77.50
2019-02-20T01:12:06.709Z,77.40
2019-02-20T01:14:37.529Z,77.40
2019-02-20T01:17:11.764Z,77.40
2019-02-20T01:19:42.481Z,77.30
2019-02-20T01:22:16.051Z,77.60
2019-02-20T01:24:46.750Z,77.80
2019-02-20T01:27:17.568Z,77.80
2019-02-20T01:29:48.573Z,77.70
2019-02-20T01:32:19.495Z,77.70
2019-02-20T01:34:52.479Z,77.50
2019-02-20T01:37:23.343Z,77.50
2019-02-20T01:39:53.999Z,77.50
2019-02-20T01:42:24.787Z,77.40
2019-02-20T01:44:55.621Z,77.30
2019-02-20T01:47:26.287Z,77.60
2019-02-20T01:49:57.247Z,77.10
2019-02-20T01:52:29.423Z,77.60
2019-02-20T01:55:03.161Z,77.80
2019-02-20T01:57:34.023Z,77.70
2019-02-20T02:00:05.076Z,77.60
2019-02-20T02:02:37.325Z,77.70
2019-02-20T02:05:14.912Z,77.90
2019-02-20T02:07:40.628Z,77.90
2019-02-20T02:10:13.490Z,77.90
2019-02-20T02:12:57.043Z,78.00
2019-02-20T02:15:28.587Z,78.00
2019-02-20T02:17:59.401Z,78.10
2019-02-20T02:20:30.380Z,78.20
2019-02-20T02:23:01.401Z,78.40
2019-02-20T02:25:33.585Z,78.60
2019-02-20T02:28:06.190Z,78.60
2019-02-20T02:30:38.216Z,79.40
2019-02-20T02:33:11.930Z,78.60
2019-02-20T02:35:44.175Z,78.70
2019-02-20T02:38:15.008Z,78.60
2019-02-20T02:40:49.531Z,78.60
2019-02-20T02:43:20.353Z,78.50
2019-02-20T02:45:51.261Z,78.70
2019-02-20T02:48:24.820Z,79.10
2019-02-20T02:50:57.879Z,79.20
2019-02-20T02:53:30.960Z,79.20
2019-02-20T02:56:01.699Z,79.20
2019-02-20T02:58:32.486Z,79.40
2019-02-20T03:01:05.711Z,79.20
2019-02-20T03:03:37.389Z,79.40
2019-02-20T03:06:08.888Z,79.70
2019-02-20T03:08:42.102Z,79.50
2019-02-20T03:11:12.921Z,79.80
2019-02-20T03:13:46.337Z,79.80
2019-02-20T03:16:17.504Z,79.70
2019-02-20T03:18:48.203Z,79.90
2019-02-20T03:21:22.329Z,79.90
2019-02-20T03:23:53.325Z,80.20
2019-02-20T03:26:26.924Z,80.50
2019-02-20T03:28:59.433Z,80.60
2019-02-20T03:31:30.329Z,80.70
2019-02-20T03:34:01.028Z,80.90
2019-02-20T03:36:31.603Z,81.20
2019-02-20T03:39:02.230Z,81.20
2019-02-20T03:41:33.135Z,81.10
2019-02-20T03:44:03.648Z,81.00
2019-02-20T03:46:34.481Z,81.20
2019-02-20T03:49:05.030Z,81.40
2019-02-20T03:51:35.592Z,81.40
2019-02-20T03:54:06.342Z,81.10
2019-02-20T03:56:37.133Z,81.20
2019-02-20T03:59:07.705Z,81.40
2019-02-20T04:01:38.270Z,81.50
2019-02-20T04:04:08.907Z,81.60
2019-02-20T04:06:39.487Z,81.40
2019-02-20T04:09:10.411Z,81.30
2019-02-20T04:11:41.719Z,81.20
2019-02-20T04:14:12.375Z,81.00
2019-02-20T04:16:43.290Z,81.20
2019-02-20T04:19:13.823Z,81.30
2019-02-20T04:21:44.512Z,81.50
2019-02-20T04:24:15.354Z,81.50
2019-02-20T04:26:46.280Z,81.40
2019-02-20T04:29:16.825Z,81.30
2019-02-20T04:31:47.629Z,81.30
2019-02-20T04:34:18.230Z,81.30
2019-02-20T04:36:48.799Z,81.20
2019-02-20T04:39:19.406Z,81.40
2019-02-20T04:41:49.985Z,81.40
2019-02-20T04:44:20.588Z,81.40
2019-02-20T04:46:51.205Z,81.50
2019-02-20T04:49:21.792Z,81.50
2019-02-20T04:51:52.343Z,81.40
2019-02-20T04:54:23.233Z,81.40
2019-02-20T04:56:53.988Z,81.30
2019-02-20T04:59:24.571Z,81.20
2019-02-20T05:01:55.298Z,81.60
2019-02-20T05:04:25.899Z,80.90
2019-02-20T05:06:56.517Z,81.70
2019-02-20T05:09:27.229Z,80.90
2019-02-20T05:11:57.739Z,81.00
2019-02-20T05:14:28.328Z,80.70
2019-02-20T05:16:58.916Z,80.70
2019-02-20T05:19:29.577Z,80.70
2019-02-20T05:22:00.180Z,80.80
2019-02-20T05:24:30.811Z,81.00
2019-02-20T05:27:01.451Z,80.90
2019-02-20T05:29:34.426Z,80.90
2019-02-20T05:32:04.272Z,80.30
2019-02-20T05:34:35.826Z,80.20
2019-02-20T05:37:09.021Z,80.20
2019-02-20T05:39:39.608Z,80.00
2019-02-20T05:42:12.882Z,79.90
2019-02-20T05:44:49.839Z,79.80
2019-02-20T05:47:21.607Z,79.70
2019-02-20T05:49:52.299Z,79.70
2019-02-20T05:52:27.017Z,79.60
2019-02-20T05:55:00.918Z,79.60
2019-02-20T05:57:31.612Z,79.30
2019-02-20T06:00:02.502Z,79.40
2019-02-20T06:02:33.193Z,79.80
2019-02-20T06:05:04.408Z,79.70
2019-02-20T06:07:35.767Z,79.50
2019-02-20T06:10:07.361Z,79.40
2019-02-20T06:12:37.917Z,79.40
2019-02-20T06:15:09.214Z,79.50
2019-02-20T06:17:40.077Z,79.50
2019-02-20T06:20:10.864Z,79.60
2019-02-20T06:22:41.612Z,79.70
2019-02-20T06:25:12.244Z,79.80
2019-02-20T06:27:42.923Z,80.00
2019-02-20T06:30:13.677Z,80.10
2019-02-20T06:32:44.343Z,80.20
2019-02-20T06:35:14.983Z,80.00
2019-02-20T06:37:45.679Z,80.20
2019-02-20T06:40:16.253Z,80.00
2019-02-20T06:42:46.869Z,79.90
2019-02-20T06:45:17.723Z,79.70
2019-02-20T06:47:48.358Z,79.40
2019-02-20T06:50:19.027Z,79.40
2019-02-20T06:52:49.561Z,79.20
2019-02-20T06:55:20.299Z,79.20
2019-02-20T06:57:50.879Z,78.90
2019-02-20T07:00:21.579Z,78.60
2019-02-20T07:02:52.303Z,78.40
2019-02-20T07:05:34.080Z,78.00
2019-02-20T07:08:57.803Z,77.90
2019-02-20T07:11:51.095Z,77.70
2019-02-20T07:14:44.727Z,77.30
2019-02-20T07:17:37.031Z,77.10
2019-02-20T07:20:40.445Z,77.10
2019-02-20T07:23:35.009Z,77.10
2019-02-20T07:26:43.294Z,76.80
2019-02-20T07:29:45.449Z,76.80
2019-02-20T07:32:17.757Z,76.50
2019-02-20T07:34:53.362Z,76.20
2019-02-20T07:37:24.431Z,76.30
2019-02-20T07:39:57.271Z,76.20
2019-02-20T07:42:28.231Z,76.10
2019-02-20T07:44:59.309Z,76.30
2019-02-20T07:47:30.012Z,75.50
2019-02-20T07:50:02.068Z,75.00
2019-02-20T07:52:34.456Z,74.30
2019-02-20T07:55:12.886Z,73.20
2019-02-20T07:57:40.246Z,73.10
2019-02-20T08:00:12.729Z,72.90
2019-02-20T08:02:43.413Z,72.30
2019-02-20T08:05:14.208Z,71.20
2019-02-20T08:07:45.766Z,70.70
2019-02-20T08:10:16.447Z,70.40
2019-02-20T08:12:47.205Z,71.00
2019-02-20T08:15:21.248Z,71.00
2019-02-20T08:17:51.903Z,71.40
2019-02-20T08:20:22.588Z,71.50
2019-02-20T08:22:53.347Z,71.10
2019-02-20T08:25:24.206Z,70.60
2019-02-20T08:27:54.799Z,69.90
2019-02-20T08:30:25.448Z,69.70
2019-02-20T08:32:56.121Z,70.00
2019-02-20T08:35:26.859Z,69.40
2019-02-20T08:37:57.444Z,69.50
2019-02-20T08:40:28.018Z,68.70
2019-02-20T08:43:00.724Z,69.10
2019-02-20T08:45:31.359Z,69.00
2019-02-20T08:48:02.091Z,68.60
2019-02-20T08:50:32.855Z,68.60
2019-02-20T08:53:03.680Z,68.50
2019-02-20T08:55:34.318Z,67.80
2019-02-20T08:58:05.340Z,66.50
2019-02-20T09:00:36.009Z,63.00
2019-02-20T09:03:06.619Z,60.30
2019-02-20T09:05:37.317Z,58.40
2019-02-20T09:08:07.940Z,56.70
2019-02-20T09:10:38.547Z,55.00
2019-02-20T09:13:09.162Z,53.30
2019-02-20T09:15:39.929Z,51.90
2019-02-20T09:18:10.685Z,51.50
2019-02-20T09:20:41.303Z,52.40
2019-02-20T09:23:12.217Z,53.90
2019-02-20T09:25:42.909Z,55.00
2019-02-20T09:28:13.565Z,54.80
2019-02-20T09:30:44.192Z,54.90
2019-02-20T09:33:14.869Z,54.80
2019-02-20T09:35:45.631Z,54.40
2019-02-20T09:38:16.227Z,53.20
2019-02-20T09:40:46.808Z,52.20
2019-02-20T09:43:17.479Z,50.80
2019-02-20T09:45:49.918Z,49.10
2019-02-20T09:48:20.593Z,47.50
2019-02-20T09:50:53.330Z,45.00
2019-02-20T09:53:23.958Z,42.10
2019-02-20T09:55:57.546Z,38.50
2019-02-20T09:58:28.484Z,37.40
2019-02-20T10:00:59.849Z,36.40
2019-02-20T10:03:30.692Z,37.00
2019-02-20T10:06:01.415Z,37.30
2019-02-20T10:08:32.130Z,36.80
2019-02-20T10:11:02.738Z,38.10
2019-02-20T10:13:33.344Z,39.30
2019-02-20T10:16:03.986Z,39.80
2019-02-20T10:18:34.802Z,40.50
2019-02-20T10:21:05.558Z,41.90
2019-02-20T10:23:36.127Z,42.90
2019-02-20T10:26:06.697Z,43.70
2019-02-20T10:28:37.245Z,44.30
2019-02-20T10:31:07.786Z,44.80
2019-02-20T10:33:38.387Z,44.60
2019-02-20T10:36:08.993Z,43.70
2019-02-20T10:38:39.635Z,43.00
2019-02-20T10:41:10.295Z,41.90
2019-02-20T10:43:40.963Z,41.00
2019-02-20T10:46:11.639Z,38.90
2019-02-20T10:48:42.276Z,38.00
2019-02-20T10:51:13.749Z,38.30
2019-02-20T10:53:44.383Z,38.50
2019-02-20T10:56:15.330Z,38.50
2019-02-20T10:58:46.046Z,37.70
2019-02-20T11:01:16.797Z,36.30
2019-02-20T11:03:47.347Z,35.90
2019-02-20T11:06:18.038Z,35.50
2019-02-20T11:08:50.435Z,36.40
2019-02-20T11:11:21.231Z,37.80
2019-02-20T11:13:51.876Z,40.10
2019-02-20T11:16:22.531Z,40.60
2019-02-20T11:18:53.100Z,41.60
2019-02-20T11:21:23.944Z,41.50
2019-02-20T11:23:54.875Z,40.30
2019-02-20T11:26:25.563Z,37.80
2019-02-20T11:28:56.328Z,37.50
2019-02-20T11:31:27.047Z,38.00
2019-02-20T11:33:57.633Z,38.70
2019-02-20T11:36:28.325Z,38.70
2019-02-20T11:38:58.996Z,38.80
2019-02-20T11:41:29.699Z,40.10
2019-02-20T11:44:00.524Z,41.40
2019-02-20T11:46:31.333Z,42.10
2019-02-20T11:49:03.165Z,42.00
2019-02-20T11:51:33.851Z,42.70
2019-02-20T11:54:04.535Z,43.20
2019-02-20T11:56:35.191Z,43.30
2019-02-20T11:59:06.067Z,44.50
2019-02-20T12:01:37.143Z,43.40
2019-02-20T12:04:07.724Z,43.60
2019-02-20T12:06:38.344Z,43.40
2019-02-20T12:09:09.920Z,43.20
2019-02-20T12:11:40.799Z,42.90
2019-02-20T12:14:11.552Z,43.20
2019-02-20T12:16:42.109Z,43.30
2019-02-20T12:19:12.805Z,42.80
2019-02-20T12:21:43.400Z,42.40
2019-02-20T12:24:13.971Z,41.90
2019-02-20T12:26:45.110Z,42.00
2019-02-20T12:29:15.690Z,42.40
2019-02-20T12:31:52.289Z,42.80
2019-02-20T12:34:21.548Z,42.50
2019-02-20T12:36:52.215Z,42.00
2019-02-20T12:39:23.054Z,42.40
2019-02-20T12:41:53.876Z,42.30
2019-02-20T12:44:25.122Z,42.60
2019-02-20T12:46:55.704Z,42.60
2019-02-20T12:49:26.247Z,42.40
2019-02-20T12:51:56.833Z,41.90
2019-02-20T12:54:27.547Z,41.80
2019-02-20T12:57:01.583Z,41.40
2019-02-20T12:59:32.214Z,41.40
2019-02-20T13:02:07.977Z,42.00
2019-02-20T13:04:38.654Z,41.20
2019-02-20T13:07:09.359Z,41.10
2019-02-20T13:09:40.070Z,41.10
2019-02-20T13:12:10.880Z,41.00
2019-02-20T13:14:41.580Z,41.70
2019-02-20T13:17:12.455Z,41.40
2019-02-20T13:19:43.895Z,41.30
2019-02-20T13:22:14.541Z,41.60
2019-02-20T13:24:45.180Z,41.80
2019-02-20T13:27:22.531Z,41.90
2019-02-20T13:29:52.947Z,42.30
2019-02-20T13:32:23.575Z,42.90
2019-02-20T13:34:54.449Z,43.10
2019-02-20T13:37:25.358Z,42.80
2019-02-20T13:39:55.977Z,42.70
2019-02-20T13:42:26.597Z,42.80
2019-02-20T13:44:59.323Z,42.60
2019-02-20T13:47:29.942Z,43.30
2019-02-20T13:50:00.696Z,43.00
2019-02-20T13:52:31.273Z,42.90
2019-02-20T13:55:02.394Z,43.50
2019-02-20T13:57:33.038Z,43.30
2019-02-20T14:00:03.935Z,44.10
2019-02-20T14:02:34.592Z,44.40
2019-02-20T14:05:05.408Z,44.70
2019-02-20T14:07:36.638Z,45.00
2019-02-20T14:10:13.972Z,45.50
2019-02-20T14:12:44.608Z,45.50
2019-02-20T14:15:17.341Z,45.50
2019-02-20T14:17:47.926Z,45.70
2019-02-20T14:20:18.651Z,45.40
2019-02-20T14:22:50.781Z,46.10
2019-02-20T14:25:21.784Z,46.30
2019-02-20T14:27:52.417Z,46.30
2019-02-20T14:30:23.126Z,46.40
2019-02-20T14:32:54.091Z,46.50
2019-02-20T14:35:25.006Z,45.90
2019-02-20T14:37:57.243Z,46.10
2019-02-20T14:40:28.263Z,45.60
2019-02-20T14:42:58.951Z,45.80
2019-02-20T14:45:48.155Z,46.40
2019-02-20T14:48:18.778Z,47.10
2019-02-20T14:50:49.486Z,47.50
2019-02-20T14:53:20.247Z,47.80
2019-02-20T14:55:50.854Z,47.50
2019-02-20T14:58:24.730Z,47.70
2019-02-20T15:00:56.437Z,48.00
2019-02-20T15:03:27.200Z,48.50
2019-02-20T15:05:59.612Z,49.00
2019-02-20T15:08:31.999Z,49.50
2019-02-20T15:11:03.013Z,49.90
2019-02-20T15:13:33.843Z,49.70
2019-02-20T15:16:06.747Z,50.10
2019-02-20T15:18:45.816Z,50.40
2019-02-20T15:21:16.403Z,50.70
2019-02-20T15:23:47.320Z,51.30
2019-02-20T15:26:18.083Z,51.60
2019-02-20T15:28:48.799Z,52.00
2019-02-20T15:31:21.307Z,52.50
2019-02-20T15:33:51.733Z,52.90
2019-02-20T15:36:23.268Z,53.20
2019-02-20T15:38:55.551Z,53.40
2019-02-20T15:41:26.230Z,53.50
2019-02-20T15:43:57.499Z,53.70
2019-02-20T15:46:28.192Z,54.00
2019-02-20T15:49:01.460Z,54.40
2019-02-20T15:51:40.976Z,54.50
2019-02-20T15:54:15.266Z,55.30
2019-02-20T15:56:46.261Z,54.80
2019-02-20T15:59:18.750Z,54.80
2019-02-20T16:01:50.021Z,55.00
2019-02-20T16:04:20.761Z,55.10
2019-02-20T16:06:51.549Z,55.30
2019-02-20T16:09:30.131Z,55.50
2019-02-20T16:12:02.601Z,55.60
2019-02-20T16:14:33.577Z,56.10
2019-02-20T16:17:04.549Z,56.10
2019-02-20T16:19:35.795Z,56.00
2019-02-20T16:22:06.701Z,56.20
2019-02-20T16:24:37.877Z,56.60
2019-02-20T16:27:09.119Z,56.70
2019-02-20T16:29:40.086Z,57.10
2019-02-20T16:32:11.109Z,57.30
2019-02-20T16:34:42.109Z,57.40
2019-02-20T16:37:13.146Z,57.80
2019-02-20T16:39:44.082Z,57.90
2019-02-20T16:42:14.963Z,58.70
2019-02-20T16:44:45.838Z,58.90
2019-02-20T16:47:16.836Z,59.40
2019-02-20T16:49:47.742Z,60.30
2019-02-20T16:52:19.843Z,60.00
2019-02-20T16:54:51.294Z,59.90
2019-02-20T16:57:23.308Z,61.30
2019-02-20T16:59:54.214Z,61.40
2019-02-20T17:02:26.381Z,61.80
2019-02-20T17:05:16.963Z,62.00
2019-02-20T17:07:51.436Z,62.10
2019-02-20T17:10:49.411Z,62.70
2019-02-20T17:13:23.064Z,62.50
2019-02-20T17:18:51.821Z,63.10
2019-02-20T17:21:28.639Z,63.00
2019-02-20T17:24:07.099Z,62.90
2019-02-20T17:26:43.051Z,63.10
2019-02-20T17:29:19.538Z,63.00
2019-02-20T17:31:50.782Z,63.20
2019-02-20T17:34:21.631Z,63.70
2019-02-20T17:36:56.905Z,63.80
2019-02-20T17:39:29.573Z,63.80
2019-02-20T17:42:00.593Z,64.10
2019-02-20T17:44:31.409Z,64.30
2019-02-20T17:47:03.008Z,64.60
2019-02-20T17:49:34.291Z,64.60
2019-02-20T17:52:15.060Z,64.80
2019-02-20T17:54:49.044Z,64.70
2019-02-20T17:57:20.365Z,65.00
2019-02-20T17:59:51.468Z,65.10
2019-02-20T18:02:22.270Z,65.30
2019-02-20T18:04:53.172Z,65.30
2019-02-20T18:07:23.966Z,65.60
2019-02-20T18:09:54.896Z,65.70
2019-02-20T18:12:27.483Z,65.80
2019-02-20T18:14:58.483Z,66.10
2019-02-20T18:17:29.761Z,66.40
2019-02-20T18:20:01.769Z,66.60
2019-02-20T18:22:32.674Z,66.90
2019-02-20T18:25:03.513Z,67.00
2019-02-20T18:27:34.489Z,67.00
2019-02-20T18:30:06.032Z,66.90
2019-02-20T18:32:37.252Z,66.90
2019-02-20T18:35:09.050Z,66.60
2019-02-20T18:37:39.976Z,66.40
2019-02-20T18:40:12.208Z,66.40
2019-02-20T18:42:43.133Z,66.90
2019-02-20T18:45:14.523Z,66.90
2019-02-20T18:47:45.296Z,66.70
2019-02-20T18:50:16.433Z,66.80
2019-02-20T18:52:47.716Z,66.90
2019-02-20T18:55:18.701Z,67.10
2019-02-20T18:57:49.845Z,67.00
2019-02-20T19:00:23.855Z,66.90
2019-02-20T19:02:54.827Z,66.90
2019-02-20T19:05:25.904Z,66.50
2019-02-20T19:07:58.541Z,66.30
2019-02-20T19:10:33.425Z,66.10
2019-02-20T19:13:11.117Z,66.30
2019-02-20T19:15:54.368Z,66.40
2019-02-20T19:19:10.263Z,66.40
2019-02-20T19:22:10.970Z,66.30
2019-02-20T19:25:30.129Z,66.30
2019-02-20T19:28:05.800Z,65.90
2019-02-20T19:31:23.332Z,65.60
2019-02-20T19:34:40.077Z,65.40
2019-02-20T19:37:54.118Z,65.40
2019-02-20T19:41:05.791Z,65.30
2019-02-20T19:43:57.277Z,65.50
2019-02-20T19:47:10.949Z,65.50
2019-02-20T19:50:44.695Z,65.70
2019-02-20T19:53:42.632Z,65.70
2019-02-20T19:57:04.047Z,65.70
2019-02-20T20:00:06.484Z,65.50
2019-02-20T20:03:02.348Z,65.70
2019-02-20T20:06:12.643Z,65.50
2019-02-20T20:08:56.383Z,65.50
2019-02-20T20:12:03.482Z,65.50
2019-02-20T20:15:24.849Z,65.50
2019-02-20T20:18:32.579Z,65.40
2019-02-20T20:21:27.440Z,65.80
2019-02-20T20:24:48.933Z,65.80
2019-02-20T20:28:06.754Z,66.30
2019-02-20T20:31:06.719Z,66.40
2019-02-20T20:34:21.534Z,66.70
2019-02-20T20:37:15.117Z,66.80
2019-02-20T20:40:41.767Z,67.00
2019-02-20T20:43:55.346Z,67.30
2019-02-20T20:46:37.917Z,67.50
2019-02-20T20:49:44.130Z,67.90
2019-02-20T20:53:04.643Z,68.40
2019-02-20T20:56:19.816Z,68.40
2019-02-20T20:59:43.927Z,68.40
2019-02-20T21:02:18.999Z,68.40
2019-02-20T21:05:40.028Z,68.30
2019-02-20T21:08:17.599Z,68.40
2019-02-20T21:11:48.474Z,68.20
2019-02-20T21:14:46.858Z,68.40
2019-02-20T21:17:51.384Z,68.40
2019-02-20T21:20:58.318Z,68.70
2019-02-20T21:24:02.157Z,69.00
2019-02-20T21:27:15.782Z,69.20
2019-02-20T21:30:13.626Z,69.20
2019-02-20T21:33:15.891Z,69.30
2019-02-20T21:36:11.997Z,69.30
2019-02-20T21:39:33.705Z,69.40
2019-02-20T21:42:31.002Z,69.60
2019-02-20T21:45:36.454Z,69.80
2019-02-20T21:48:48.748Z,69.70
2019-02-20T21:52:03.575Z,69.20
2019-02-20T21:55:07.239Z,68.80
2019-02-20T21:58:27.611Z,68.80
2019-02-20T22:01:26.077Z,68.60
2019-02-20T22:04:21.401Z,68.90
2019-02-20T22:07:42.248Z,69.20
2019-02-20T22:10:59.168Z,69.60
2019-02-20T22:14:31.820Z,69.60
2019-02-20T22:17:26.983Z,70.00
2019-02-20T22:20:20.751Z,70.50
2019-02-20T22:23:09.632Z,70.90
2019-02-20T22:26:05.315Z,70.70
2019-02-20T22:28:54.794Z,71.00
2019-02-20T22:32:08.683Z,71.50
2019-02-20T22:35:19.275Z,71.90
2019-02-20T22:38:25.988Z,72.10
2019-02-20T22:41:17.439Z,72.30
2019-02-20T22:44:25.468Z,72.60
2019-02-20T22:47:17.861Z,72.60
2019-02-20T22:50:22.055Z,72.70
2019-02-20T22:53:11.832Z,72.90
2019-02-20T22:56:20.978Z,73.10
2019-02-20T22:59:40.304Z,72.90
2019-02-20T23:02:42.323Z,72.90
2019-02-20T23:06:00.336Z,72.60
2019-02-20T23:09:28.675Z,72.50
2019-02-20T23:12:06.767Z,72.30
2019-02-20T23:14:59.578Z,71.90
2019-02-20T23:17:31.117Z,71.90
2019-02-20T23:20:02.147Z,71.90
2019-02-20T23:22:33.054Z,72.10
2019-02-20T23:25:04.313Z,72.40
2019-02-20T23:27:35.304Z,72.80
2019-02-20T23:30:12.931Z,72.80
2019-02-20T23:32:43.031Z,72.80
2019-02-20T23:35:13.486Z,72.90
2019-02-20T23:37:44.362Z,72.60
2019-02-20T23:40:15.167Z,72.50
2019-02-20T23:42:45.849Z,72.50
2019-02-20T23:45:17.234Z,72.40
2019-02-20T23:47:47.920Z,72.40
2019-02-20T23:50:19.372Z,72.40
2019-02-20T23:52:52.728Z,72.20
2019-02-20T23:55:23.397Z,72.10
2019-02-20T23:57:54.984Z,72.10
